DATI METEO

OGGI
Time Temp. P.to rug.. Umid. Press.
00:05 11 7.1 77 1019.1
00:16 10.9 7 77 1019.1
00:26 10.8 6.9 77 1019.2
00:35 10.7 6.8 77 1019.1
00:46 10.6 6.7 77 1019
00:56 10.5 6.8 78 1019.1
01:06 10.5 6.6 77 1019
01:16 10.3 6.5 77 1019
01:26 10.2 6.5 78 1019.1
01:36 10.1 6.4 78 1019.1
01:46 10 6.3 78 1019
01:57 10 6.3 78 1018.9
02:06 9.9 6.2 78 1018.8
02:16 9.8 6.2 78 1018.8
02:26 9.7 6.1 78 1018.9
02:37 9.7 6.1 78 1018.8
02:47 9.6 6 78 1018.8
02:56 9.5 5.9 78 1018.8
03:07 9.4 5.8 78 1018.7
03:17 9.4 5.9 79 1018.6
03:27 9.4 5.9 79 1018.5
03:37 9.3 5.8 79 1018.5
03:47 9.3 5.8 79 1018.5
03:57 9.2 5.6 78 1018.5
04:07 9 5.6 79 1018.5
04:18 8.9 5.5 79 1018.6
04:28 8.9 5.5 79 1018.6
04:37 8.8 5.4 79 1018.5
04:47 8.8 5.4 79 1018.5
04:58 8.8 5.4 79 1018.4
05:08 8.7 5.1 78 1018.4
05:17 8.6 5.2 79 1018.5
05:28 8.5 5.1 79 1018.3
05:38 8.5 5.1 79 1018.3
05:48 8.4 5 79 1018.3
05:58 8.5 5.1 79 1018.4
06:08 8.5 5.1 79 1018.4
06:18 8.6 5.2 79 1018.4
06:28 8.6 5.2 79 1018.4
06:39 8.3 4.9 79 1018.3
06:48 8.3 4.9 79 1018.4
06:58 8.3 4.9 79 1018.5
07:08 8.2 4.8 79 1018.6
07:19 8.1 4.7 79 1018.6
07:29 8.1 4.7 79 1018.6
07:38 8.1 4.7 79 1018.7
07:49 8.1 4.7 79 1018.7
07:59 8.1 4.7 79 1018.6
08:09 8 4.6 79 1018.6
08:18 7.8 4.4 79 1018.7
08:29 7.9 4.7 80 1018.9
08:39 8 4.8 80 1018.7
08:49 8.1 4.9 80 1018.8
08:59 8.2 5.1 81 1018.8
09:09 8.5 5.4 81 1019
09:19 8.8 5.7 81 1019
09:29 9.2 6.1 81 1019
09:40 9.6 6.3 80 1019.1
09:50 9.9 6.6 80 1019.2
09:59 10.3 7 80 1019.2
10:10 10.7 7.2 79 1019.1
10:20 11.2 7.5 78 1019
10:30 11.7 7.8 77 1019.1
10:40 12.2 8.1 76 1019
11:00 13.3 9 75 1019
11:10 13.9 9.3 74 1019
11:30 15 9.8 71 1019.1
11:40 15.4 10 70 1019
11:50 16 10.3 69 1018.9
12:01 16.5 10.4 67 1018.9
12:11 17.2 10.6 65 1019
12:20 17.7 10.8 64 1018.8
12:31 18.3 10.9 62 1018.7
12:41 18.6 10.9 61 1018.7
12:51 19.3 11.6 61 1018.7
13:01 19.8 11.8 60 1018.6
13:11 20.4 11.9 58 1018.6
13:21 20.9 12.1 57 1018.5
13:31 21.3 11.9 55 1018.4
13:41 21.4 11.1 52 1018.3
13:52 21.5 11.2 52 1018.2
14:01 21.9 11.6 52 1018
14:11 22.2 11 49 1017.8
14:22 22.5 11.3 49 1017.8
14:32 22.7 11.8 50 1017.8
14:41 23 11.7 49 1017.5
14:51 23.2 11.9 49 1017.6
15:02 23.6 12 48 1017.5
15:12 23.8 11.5 46 1017.4
15:22 23.8 11.5 46 1017.6
15:32 23.9 11.3 45 1017.6
15:42 24.2 11.9 46 1017.5
15:52 24.3 12 46 1017.5
16:02 24.4 11.7 45 1017.4
16:12 24.6 12.2 46 1017.5
16:22 24.5 12.1 46 1017.4
16:32 24.1 11.4 45 1017.4
16:43 23.6 11 45 1017.4
16:53 23 10.8 46 1017.3
17:02 22.7 10.5 46 1017.3
17:12 22.3 10.5 47 1017.3
17:23 22 10.2 47 1017.3

STATISTICHE GIORNALIERE

2022-10-05
TEMPERATURA
MEDIA
13.6
MASSIMA
24.6
16:12
MINIMA
7.8
08:18
PRESSIONE
MEDIA
1018.5
MASSIMA
1019.2
00:26
MINIMA
1017.3
16:53
PUNTO DI RUGIADA
MEDIA
7.8
MASSIMA
12.2
16:12
MINIMA
4.4
08:18
UMIDITÀ
MEDIA
70
MASSIMA
81
08:59
MINIMA
45
15:32
TEMPERATURA (°C)
MINIMA
7.8
MASSIMA
24.6
MEDIA
13.6
PRESSIONE (hpa)
MINIMA
1017.3
MASSIMA
1019.2
MEDIA
1018.5
DEVICE